createdAt,value
2023-02-15T00:00:19.862Z,15.13
2023-02-15T00:02:48.173Z,15.17
2023-02-15T00:05:18.506Z,15.23
2023-02-15T00:07:47.704Z,15.57
2023-02-15T00:10:18.555Z,14.93
2023-02-15T00:12:46.852Z,14.97
2023-02-15T00:15:16.020Z,15.07
2023-02-15T00:17:44.326Z,14.10
2023-02-15T00:20:13.178Z,15.03
2023-02-15T00:22:42.843Z,14.27
2023-02-15T00:25:11.491Z,13.70
2023-02-15T00:27:39.718Z,15.37
2023-02-15T00:30:09.940Z,14.57
2023-02-15T00:32:38.300Z,15.10
2023-02-15T00:35:07.955Z,14.33
2023-02-15T00:37:36.231Z,15.40
2023-02-15T00:40:07.467Z,13.87
2023-02-15T00:42:35.755Z,14.17
2023-02-15T00:45:04.416Z,14.23
2023-02-15T00:47:32.742Z,14.00
2023-02-15T00:50:01.008Z,14.53
2023-02-15T00:52:29.280Z,14.10
2023-02-15T00:54:57.644Z,15.43
2023-02-15T00:57:27.409Z,15.27
2023-02-15T00:59:55.700Z,15.50
2023-02-15T01:02:24.028Z,15.57
2023-02-15T01:04:52.279Z,15.43
2023-02-15T01:07:20.560Z,14.70
2023-02-15T01:09:48.837Z,15.63
2023-02-15T01:12:17.495Z,15.87
2023-02-15T01:14:47.164Z,15.67
2023-02-15T01:17:15.487Z,14.97
2023-02-15T01:19:43.827Z,14.93
2023-02-15T01:22:12.156Z,14.93
2023-02-15T01:24:40.454Z,15.00
2023-02-15T01:27:09.163Z,14.60
2023-02-15T01:29:37.510Z,15.93
2023-02-15T01:32:07.626Z,15.07
2023-02-15T01:34:36.168Z,14.43
2023-02-15T01:37:04.445Z,14.90
2023-02-15T01:39:32.810Z,15.13
2023-02-15T01:42:01.059Z,15.53
2023-02-15T01:44:52.619Z,14.93
2023-02-15T01:50:06.299Z,15.23
2023-02-15T01:52:36.888Z,15.87
2023-02-15T01:55:07.896Z,14.60
2023-02-15T01:57:36.657Z,14.20
2023-02-15T02:00:09.056Z,14.83
2023-02-15T02:02:39.051Z,14.90
2023-02-15T02:05:10.190Z,14.87
2023-02-15T02:07:41.985Z,14.03
2023-02-15T02:10:11.703Z,14.50
2023-02-15T02:12:43.354Z,13.43
2023-02-15T02:15:12.137Z,13.87
2023-02-15T02:17:52.384Z,14.80
2023-02-15T02:20:39.264Z,14.93
2023-02-15T02:23:34.067Z,14.10
2023-02-15T02:26:33.065Z,14.80
2023-02-15T02:29:30.249Z,15.63
2023-02-15T02:32:57.321Z,14.53
2023-02-15T02:35:32.511Z,15.00
2023-02-15T02:38:08.554Z,16.03
2023-02-15T02:40:45.682Z,15.30
2023-02-15T02:43:20.099Z,14.63
2023-02-15T02:45:54.751Z,14.37
2023-02-15T02:48:26.513Z,14.33
2023-02-15T02:50:56.414Z,15.03
2023-02-15T02:53:24.782Z,14.93
2023-02-15T02:55:56.588Z,14.97
2023-02-15T02:58:31.665Z,15.93
2023-02-15T03:01:07.137Z,14.93
2023-02-15T03:03:39.699Z,15.00
2023-02-15T03:06:14.602Z,15.07
2023-02-15T03:08:46.369Z,14.90
2023-02-15T03:11:14.768Z,15.53
2023-02-15T03:13:43.881Z,16.13
2023-02-15T03:16:29.616Z,14.73
2023-02-15T03:19:02.734Z,15.53
2023-02-15T03:21:39.988Z,15.53
2023-02-15T03:24:12.273Z,16.23
2023-02-15T03:26:44.242Z,15.90
2023-02-15T03:29:13.868Z,16.87
2023-02-15T03:31:46.385Z,15.63
2023-02-15T03:34:17.493Z,15.13
2023-02-15T03:36:54.734Z,15.70
2023-02-15T03:39:30.050Z,15.50
2023-02-15T03:42:01.032Z,14.47
2023-02-15T03:44:32.802Z,14.60
2023-02-15T03:47:06.347Z,14.73
2023-02-15T03:49:43.295Z,15.60
2023-02-15T03:52:16.252Z,15.13
2023-02-15T03:54:47.103Z,15.47
2023-02-15T03:57:39.223Z,14.87
2023-02-15T04:00:32.442Z,14.57
2023-02-15T04:03:12.203Z,14.47
2023-02-15T04:05:41.134Z,14.37
2023-02-15T04:08:11.687Z,14.23
2023-02-15T04:10:54.169Z,15.00
2023-02-15T04:13:22.755Z,16.50
2023-02-15T04:16:06.037Z,15.87
2023-02-15T04:18:53.266Z,15.90
2023-02-15T04:21:39.808Z,16.30
2023-02-15T04:24:27.360Z,16.53
2023-02-15T04:26:55.747Z,15.03
2023-02-15T04:29:25.694Z,16.43
2023-02-15T04:31:55.032Z,15.03
2023-02-15T04:34:23.780Z,15.70
2023-02-15T04:36:52.317Z,15.63
2023-02-15T04:39:22.029Z,15.20
2023-02-15T04:41:50.424Z,15.17
2023-02-15T04:44:18.724Z,15.07
2023-02-15T04:46:47.083Z,14.97
2023-02-15T04:49:15.424Z,14.17
2023-02-15T04:51:43.692Z,15.43
2023-02-15T04:54:12.049Z,15.90
2023-02-15T04:56:43.398Z,15.80
2023-02-15T04:59:12.894Z,15.97
2023-02-15T05:01:41.156Z,16.17
2023-02-15T05:04:10.360Z,16.27
2023-02-15T05:06:38.831Z,15.17
2023-02-15T05:09:07.176Z,14.83
2023-02-15T05:11:35.497Z,15.07
2023-02-15T05:14:05.272Z,15.23
2023-02-15T05:16:33.904Z,15.17
2023-02-15T05:19:02.218Z,15.17
2023-02-15T05:21:30.646Z,16.33
2023-02-15T05:23:58.968Z,16.50
2023-02-15T05:26:44.997Z,16.63
2023-02-15T05:29:14.632Z,16.03
2023-02-15T05:31:45.467Z,17.63
2023-02-15T05:34:13.833Z,17.90
2023-02-15T05:36:42.189Z,18.60
2023-02-15T05:39:10.511Z,17.50
2023-02-15T05:41:38.799Z,17.87
2023-02-15T05:44:07.207Z,17.30
2023-02-15T05:46:36.877Z,17.13
2023-02-15T05:49:05.263Z,19.57
2023-02-15T05:51:33.556Z,20.87
2023-02-15T05:54:01.902Z,21.43
2023-02-15T05:56:30.266Z,20.53
2023-02-15T05:58:58.493Z,19.00
2023-02-15T06:01:26.987Z,19.77
2023-02-15T06:03:56.894Z,17.80
2023-02-15T06:06:25.149Z,19.87
2023-02-15T06:08:53.426Z,21.13
2023-02-15T06:11:21.676Z,20.80
2023-02-15T06:13:49.971Z,19.60
2023-02-15T06:16:18.488Z,19.47
2023-02-15T06:18:46.833Z,18.67
2023-02-15T06:21:16.725Z,17.30
2023-02-15T06:23:45.299Z,17.20
2023-02-15T06:26:13.621Z,17.23
2023-02-15T06:28:42.181Z,16.97
2023-02-15T06:31:10.613Z,18.07
2023-02-15T06:33:39.314Z,16.60
2023-02-15T06:36:08.345Z,17.33
2023-02-15T06:38:38.081Z,16.93
2023-02-15T06:41:06.426Z,17.03
2023-02-15T06:43:35.270Z,16.70
2023-02-15T06:46:03.894Z,16.60
2023-02-15T06:48:32.364Z,17.23
2023-02-15T06:51:00.700Z,17.30
2023-02-15T06:53:29.134Z,17.37
2023-02-15T06:56:07.467Z,21.93
2023-02-15T06:58:35.960Z,21.63
2023-02-15T07:01:04.231Z,23.03
2023-02-15T07:03:33.018Z,20.67
2023-02-15T07:06:04.479Z,17.87
2023-02-15T07:08:32.854Z,17.30
2023-02-15T07:11:21.657Z,16.70
2023-02-15T07:13:50.585Z,17.60
2023-02-15T07:16:18.913Z,16.23
2023-02-15T07:18:47.354Z,16.83
2023-02-15T07:21:15.681Z,16.00
2023-02-15T07:23:43.989Z,16.80
2023-02-15T07:26:12.454Z,16.83
2023-02-15T07:28:40.736Z,16.90
2023-02-15T07:31:10.861Z,17.03
2023-02-15T07:33:39.148Z,17.33
2023-02-15T07:36:08.645Z,17.97
2023-02-15T07:38:38.372Z,18.63
2023-02-15T07:41:09.149Z,17.50
2023-02-15T07:43:40.255Z,18.20
2023-02-15T07:46:12.740Z,17.17
2023-02-15T07:48:42.530Z,18.07
2023-02-15T07:51:12.893Z,18.07
2023-02-15T07:53:41.647Z,23.53
2023-02-15T07:56:12.403Z,26.53
2023-02-15T07:58:53.256Z,28.87
2023-02-15T08:01:25.367Z,29.17
2023-02-15T08:03:54.195Z,34.63
2023-02-15T08:06:23.436Z,34.63
2023-02-15T08:08:51.863Z,35.37
2023-02-15T08:11:30.100Z,36.20
2023-02-15T08:14:01.105Z,38.47
2023-02-15T08:16:33.222Z,38.93
2023-02-15T08:19:03.685Z,38.83
2023-02-15T08:21:33.834Z,39.57
2023-02-15T08:24:02.257Z,40.67
2023-02-15T08:26:31.768Z,41.03
2023-02-15T08:29:00.865Z,40.83
2023-02-15T08:31:31.411Z,41.20
2023-02-15T08:33:59.838Z,39.87
2023-02-15T08:36:30.846Z,38.37
2023-02-15T08:39:01.882Z,40.47
2023-02-15T08:41:31.930Z,42.17
2023-02-15T08:44:02.914Z,41.97
2023-02-15T08:46:34.562Z,44.43
2023-02-15T08:49:03.440Z,41.60
2023-02-15T08:51:33.909Z,41.17
2023-02-15T08:54:04.510Z,45.87
2023-02-15T08:56:35.582Z,42.83
2023-02-15T08:59:04.760Z,45.37
2023-02-15T09:01:36.462Z,43.03
2023-02-15T09:04:09.667Z,44.10
2023-02-15T09:06:38.306Z,44.97
2023-02-15T09:09:06.872Z,44.00
2023-02-15T09:11:37.730Z,45.67
2023-02-15T09:14:09.130Z,44.33
2023-02-15T09:16:40.035Z,45.50
2023-02-15T09:19:09.603Z,44.77
2023-02-15T09:21:39.355Z,44.53
2023-02-15T09:24:09.540Z,42.83
2023-02-15T09:26:40.304Z,42.27
2023-02-15T09:29:09.358Z,44.77
2023-02-15T09:31:42.310Z,43.80
2023-02-15T09:34:10.713Z,42.43
2023-02-15T09:36:40.948Z,45.90
2023-02-15T09:39:12.096Z,49.10
2023-02-15T09:42:05.047Z,47.50
2023-02-15T09:44:50.886Z,54.53
2023-02-15T09:47:45.127Z,52.20
2023-02-15T09:50:18.211Z,57.40
2023-02-15T09:52:56.558Z,55.57
2023-02-15T09:55:42.159Z,58.77
2023-02-15T09:58:20.297Z,56.80
2023-02-15T10:00:56.880Z,53.33
2023-02-15T10:03:44.471Z,52.37
2023-02-15T10:06:29.466Z,51.03
2023-02-15T10:09:16.538Z,54.23
2023-02-15T10:12:02.246Z,51.50
2023-02-15T10:15:10.330Z,50.23
2023-02-15T10:17:51.013Z,50.83
2023-02-15T10:20:29.754Z,51.93
2023-02-15T10:23:15.941Z,52.80
2023-02-15T10:25:48.735Z,52.80
2023-02-15T10:28:20.992Z,54.27
2023-02-15T10:30:51.735Z,57.43
2023-02-15T10:33:40.431Z,59.73
2023-02-15T10:36:34.544Z,58.77
2023-02-15T10:39:08.717Z,60.57
2023-02-15T10:41:47.411Z,62.90
2023-02-15T10:44:42.544Z,62.90
2023-02-15T10:47:39.249Z,63.93
2023-02-15T10:50:37.687Z,59.70
2023-02-15T10:53:33.018Z,56.53
2023-02-15T10:56:13.821Z,55.40
2023-02-15T10:58:57.671Z,59.97
2023-02-15T11:01:35.763Z,56.63
2023-02-15T11:04:23.527Z,55.13
2023-02-15T11:06:55.607Z,60.53
2023-02-15T11:09:29.757Z,61.77
2023-02-15T11:12:01.726Z,55.27
2023-02-15T11:14:37.621Z,58.20
2023-02-15T11:17:12.471Z,53.53
2023-02-15T11:19:48.199Z,54.97
2023-02-15T11:22:18.022Z,52.70
2023-02-15T11:24:49.562Z,56.43
2023-02-15T11:27:24.256Z,53.67
2023-02-15T11:30:01.621Z,50.80
2023-02-15T11:32:33.470Z,52.63
2023-02-15T11:35:07.655Z,53.47
2023-02-15T11:37:42.364Z,55.97
2023-02-15T11:40:23.267Z,53.03
2023-02-15T11:42:54.205Z,50.37
2023-02-15T11:45:29.943Z,50.20
2023-02-15T11:47:59.483Z,48.17
2023-02-15T11:50:29.857Z,48.42
2023-02-15T11:53:02.460Z,47.00
2023-02-15T11:55:35.910Z,44.80
2023-02-15T11:58:10.876Z,42.92
2023-02-15T12:00:42.856Z,39.65
2023-02-15T12:03:18.405Z,39.30
2023-02-15T12:05:49.680Z,37.67
2023-02-15T12:08:21.255Z,36.38
2023-02-15T12:11:01.286Z,39.05
2023-02-15T12:13:31.099Z,37.53
2023-02-15T12:16:09.921Z,39.20
2023-02-15T12:18:41.861Z,43.83
2023-02-15T12:21:14.671Z,40.38
2023-02-15T12:23:49.318Z,40.70
2023-02-15T12:26:26.806Z,37.53
2023-02-15T12:28:59.003Z,38.28
2023-02-15T12:31:31.199Z,38.00
2023-02-15T12:34:03.536Z,40.55
2023-02-15T12:36:34.323Z,36.78
2023-02-15T12:39:23.192Z,35.47
2023-02-15T12:42:06.775Z,36.30
2023-02-15T12:44:36.884Z,33.80
2023-02-15T12:47:06.805Z,36.53
2023-02-15T12:49:36.002Z,39.85
2023-02-15T12:52:07.949Z,36.50
2023-02-15T12:54:39.773Z,36.38
2023-02-15T12:57:26.788Z,38.03
2023-02-15T12:59:58.282Z,31.58
2023-02-15T13:02:30.652Z,28.10
2023-02-15T13:05:06.486Z,32.90
2023-02-15T13:07:35.187Z,27.58
2023-02-15T13:10:03.766Z,28.17
2023-02-15T13:12:35.205Z,29.45
2023-02-15T13:15:05.699Z,24.30
2023-02-15T13:17:35.762Z,26.33
2023-02-15T13:20:10.803Z,27.95
2023-02-15T13:22:43.986Z,25.17
2023-02-15T13:25:17.537Z,22.92
2023-02-15T13:27:50.634Z,25.10
2023-02-15T13:30:28.175Z,26.13
2023-02-15T13:33:00.120Z,26.58
2023-02-15T13:35:35.527Z,23.98
2023-02-15T13:38:15.575Z,24.90
2023-02-15T13:40:51.101Z,23.88
2023-02-15T13:43:35.139Z,23.50
2023-02-15T13:46:15.998Z,25.08
2023-02-15T13:48:54.208Z,22.55
2023-02-15T13:51:28.086Z,24.42
2023-02-15T13:54:11.356Z,26.05
2023-02-15T13:56:52.234Z,23.10
2023-02-15T13:59:49.448Z,23.50
2023-02-15T14:02:40.860Z,24.30
2023-02-15T14:05:27.588Z,23.45
2023-02-15T14:08:06.229Z,22.42
2023-02-15T14:10:43.913Z,23.88
2023-02-15T14:13:51.700Z,23.38
2023-02-15T14:16:33.930Z,22.17
2023-02-15T14:19:11.284Z,22.17
2023-02-15T14:21:44.888Z,21.48
2023-02-15T14:24:27.166Z,23.15
2023-02-15T14:27:06.022Z,22.83
2023-02-15T14:29:49.672Z,22.40
2023-02-15T14:32:24.058Z,22.58
2023-02-15T14:34:55.963Z,20.05
2023-02-15T14:37:34.403Z,21.52
2023-02-15T14:40:25.755Z,19.55
2023-02-15T14:42:59.349Z,20.75
2023-02-15T14:45:34.661Z,19.00
2023-02-15T14:48:13.177Z,21.35
2023-02-15T14:50:45.229Z,18.98
2023-02-15T14:53:39.562Z,18.70
2023-02-15T14:56:21.598Z,28.73
2023-02-15T14:59:16.307Z,27.30
2023-02-15T15:01:53.035Z,26.13
2023-02-15T15:04:31.505Z,22.08
2023-02-15T15:07:07.939Z,32.15
2023-02-15T15:09:39.349Z,32.03
2023-02-15T15:12:41.701Z,26.75
2023-02-15T15:15:16.014Z,31.55
2023-02-15T15:18:02.706Z,45.20
2023-02-15T15:20:46.255Z,52.53
2023-02-15T15:23:45.172Z,41.67
2023-02-15T15:26:30.978Z,33.40
2023-02-15T15:29:02.604Z,29.27
2023-02-15T15:31:52.152Z,24.77
2023-02-15T15:35:01.950Z,22.98
2023-02-15T15:38:05.778Z,20.52
2023-02-15T15:41:07.094Z,25.83
2023-02-15T15:44:11.914Z,27.65
2023-02-15T15:47:20.278Z,25.08
2023-02-15T15:49:48.857Z,21.35
2023-02-15T15:52:19.267Z,25.67
2023-02-15T15:54:50.283Z,22.13
2023-02-15T15:57:26.841Z,22.00
2023-02-15T15:59:57.231Z,22.08
2023-02-15T16:02:25.635Z,21.92
2023-02-15T16:04:54.036Z,20.05
2023-02-15T16:07:26.641Z,24.38
2023-02-15T16:09:59.808Z,23.27
2023-02-15T16:12:32.870Z,23.23
2023-02-15T16:15:06.872Z,24.83
2023-02-15T16:17:35.884Z,24.75
2023-02-15T16:20:09.940Z,30.98
2023-02-15T16:22:38.415Z,36.78
2023-02-15T16:25:29.243Z,42.25
2023-02-15T16:27:58.962Z,55.55
2023-02-15T16:30:30.699Z,57.92
2023-02-15T16:33:08.502Z,53.47
2023-02-15T16:35:38.537Z,44.73
2023-02-15T16:38:07.686Z,48.30
2023-02-15T16:40:45.760Z,52.75
2023-02-15T16:43:20.490Z,55.53
2023-02-15T16:45:49.401Z,62.03
2023-02-15T16:48:23.027Z,59.97
2023-02-15T16:50:54.098Z,60.00
2023-02-15T16:53:25.729Z,52.43
2023-02-15T16:55:57.283Z,47.03
2023-02-15T16:58:32.543Z,48.43
2023-02-15T17:01:03.974Z,49.27
2023-02-15T17:03:32.842Z,63.00
2023-02-15T17:06:04.038Z,62.60
2023-02-15T17:08:35.109Z,72.70
2023-02-15T17:11:14.377Z,70.03
2023-02-15T17:14:15.514Z,60.53
2023-02-15T17:16:50.270Z,55.87
2023-02-15T17:19:23.078Z,54.10
2023-02-15T17:21:54.932Z,49.77
2023-02-15T17:24:36.320Z,51.70
2023-02-15T17:27:12.900Z,49.13
2023-02-15T17:29:46.086Z,47.93
2023-02-15T17:32:21.277Z,43.27
2023-02-15T17:35:09.533Z,41.90
2023-02-15T17:37:49.107Z,40.57
2023-02-15T17:40:26.371Z,39.73
2023-02-15T17:42:54.999Z,41.57
2023-02-15T17:45:28.252Z,40.33
2023-02-15T17:47:58.228Z,43.97
2023-02-15T17:50:28.617Z,44.83
2023-02-15T17:52:59.397Z,42.73
2023-02-15T17:55:35.641Z,40.17
2023-02-15T17:58:06.171Z,44.37
2023-02-15T18:00:55.556Z,50.13
2023-02-15T18:03:42.652Z,48.60
2023-02-15T18:06:32.258Z,47.93
2023-02-15T18:09:17.807Z,46.60
2023-02-15T18:11:48.883Z,46.70
2023-02-15T18:14:17.386Z,46.13
2023-02-15T18:16:47.812Z,42.07
2023-02-15T18:19:19.176Z,41.03
2023-02-15T18:21:47.973Z,41.13
2023-02-15T18:24:19.409Z,40.10
2023-02-15T18:26:48.235Z,40.30
2023-02-15T18:29:17.225Z,40.27
2023-02-15T18:31:49.286Z,43.27
2023-02-15T18:34:25.505Z,47.33
2023-02-15T18:36:54.199Z,45.70
2023-02-15T18:39:28.385Z,43.60
2023-02-15T18:41:56.884Z,44.00
2023-02-15T18:44:25.636Z,43.87
2023-02-15T18:46:55.527Z,44.37
2023-02-15T18:49:24.391Z,45.10
2023-02-15T18:51:54.272Z,43.00
2023-02-15T18:54:26.125Z,41.90
2023-02-15T18:56:57.026Z,42.03
2023-02-15T18:59:26.876Z,41.57
2023-02-15T19:01:57.060Z,39.97
2023-02-15T19:04:26.013Z,40.70
2023-02-15T19:06:55.637Z,37.87
2023-02-15T19:09:26.316Z,37.33
2023-02-15T19:11:56.425Z,36.87
2023-02-15T19:14:28.623Z,35.97
2023-02-15T19:16:59.555Z,34.60
2023-02-15T19:19:28.834Z,32.70
2023-02-15T19:21:57.577Z,31.63
2023-02-15T19:24:33.969Z,32.07
2023-02-15T19:27:02.713Z,32.80
2023-02-15T19:29:32.425Z,36.90
2023-02-15T19:32:02.433Z,37.17
2023-02-15T19:34:30.919Z,40.93
2023-02-15T19:36:59.250Z,44.30
2023-02-15T19:39:30.199Z,49.90
2023-02-15T19:41:58.504Z,52.83
2023-02-15T19:44:26.976Z,55.63
2023-02-15T19:46:55.785Z,49.43
2023-02-15T19:49:25.811Z,44.53
2023-02-15T19:51:54.897Z,42.60
2023-02-15T19:54:31.920Z,40.50
2023-02-15T19:57:00.578Z,39.93
2023-02-15T19:59:30.466Z,38.87
2023-02-15T20:01:59.482Z,38.80
2023-02-15T20:04:29.562Z,39.17
2023-02-15T20:07:00.817Z,38.67
2023-02-15T20:09:34.042Z,38.43
2023-02-15T20:12:02.928Z,35.87
2023-02-15T20:14:31.564Z,33.73
2023-02-15T20:17:00.248Z,37.33
2023-02-15T20:19:30.134Z,34.30
2023-02-15T20:21:59.412Z,36.23
2023-02-15T20:24:30.243Z,34.50
2023-02-15T20:27:00.913Z,36.77
2023-02-15T20:29:29.545Z,35.17
2023-02-15T20:32:01.675Z,32.47
2023-02-15T20:34:32.337Z,33.87
2023-02-15T20:37:00.698Z,33.87
2023-02-15T20:39:29.319Z,35.77
2023-02-15T20:41:57.687Z,34.73
2023-02-15T20:44:27.734Z,33.63
2023-02-15T20:46:58.221Z,35.23
2023-02-15T20:49:29.129Z,33.63
2023-02-15T20:52:00.032Z,32.40
2023-02-15T20:54:32.018Z,32.53
2023-02-15T20:57:00.815Z,34.03
2023-02-15T20:59:32.026Z,34.10
2023-02-15T21:02:02.740Z,34.40
2023-02-15T21:04:33.304Z,37.43
2023-02-15T21:07:03.555Z,38.67
2023-02-15T21:09:31.860Z,39.50
2023-02-15T21:12:02.715Z,37.20
2023-02-15T21:14:31.761Z,37.47
2023-02-15T21:17:00.106Z,37.67
2023-02-15T21:19:28.834Z,34.10
2023-02-15T21:21:57.514Z,38.70
2023-02-15T21:24:30.128Z,45.83
2023-02-15T21:27:02.603Z,43.53
2023-02-15T21:29:32.089Z,38.17
2023-02-15T21:32:02.448Z,38.17
2023-02-15T21:34:31.149Z,38.17
2023-02-15T21:37:00.705Z,43.87
2023-02-15T21:39:33.435Z,47.40
2023-02-15T21:42:19.282Z,49.87
2023-02-15T21:45:05.382Z,48.90
2023-02-15T21:47:52.070Z,50.77
2023-02-15T21:50:40.108Z,48.73
2023-02-15T21:53:12.226Z,48.80
2023-02-15T21:55:42.219Z,46.73
2023-02-15T21:58:26.345Z,44.63
2023-02-15T22:00:56.194Z,43.23
2023-02-15T22:03:25.184Z,43.23
2023-02-15T22:05:53.541Z,44.13
2023-02-15T22:08:21.996Z,40.57
2023-02-15T22:10:51.729Z,41.03
2023-02-15T22:13:26.667Z,39.60
2023-02-15T22:15:55.590Z,38.20
2023-02-15T22:18:25.832Z,37.57
2023-02-15T22:20:54.521Z,36.30
2023-02-15T22:23:23.200Z,37.30
2023-02-15T22:25:55.913Z,36.23
2023-02-15T22:28:28.922Z,35.43
2023-02-15T22:30:57.371Z,37.47
2023-02-15T22:33:29.131Z,40.40
2023-02-15T22:35:58.424Z,38.53
2023-02-15T22:38:26.720Z,39.60
2023-02-15T22:41:04.196Z,38.17
2023-02-15T22:43:37.855Z,38.67
2023-02-15T22:46:09.123Z,41.00
2023-02-15T22:48:37.477Z,38.97
2023-02-15T22:51:06.107Z,40.03
2023-02-15T22:53:34.530Z,39.03
2023-02-15T22:56:08.934Z,38.33
2023-02-15T22:58:37.332Z,37.37
2023-02-15T23:01:06.339Z,38.07
2023-02-15T23:03:34.843Z,37.43
2023-02-15T23:06:04.389Z,36.90
2023-02-15T23:08:32.671Z,38.33
2023-02-15T23:11:01.004Z,36.83
2023-02-15T23:13:33.126Z,37.27
2023-02-15T23:16:03.848Z,36.50
2023-02-15T23:18:34.926Z,36.20
2023-02-15T23:21:07.764Z,36.77
2023-02-15T23:23:39.074Z,36.83
2023-02-15T23:26:16.577Z,35.73
2023-02-15T23:28:46.439Z,36.27
2023-02-15T23:31:19.092Z,36.00
2023-02-15T23:33:48.094Z,37.93
2023-02-15T23:36:29.172Z,38.27
2023-02-15T23:38:59.674Z,38.67
2023-02-15T23:41:29.633Z,39.87
2023-02-15T23:44:03.396Z,38.00
2023-02-15T23:46:40.600Z,37.70
2023-02-15T23:49:15.948Z,38.43
2023-02-15T23:51:46.285Z,38.20
2023-02-15T23:54:15.498Z,37.50
2023-02-15T23:56:46.471Z,37.40
2023-02-15T23:59:19.732Z,36.10
